sensor_id;sensor_type;location;lat;lon;timestamp;P1;durP1;ratioP1;P2;durP2;ratioP2
13797;SDS011;6970;51.340;3.240;2023-04-01T00:01:48;27.33;;;4.37;;
13797;SDS011;6970;51.340;3.240;2023-04-01T00:04:15;19.40;;;4.10;;
13797;SDS011;6970;51.340;3.240;2023-04-01T00:06:43;19.47;;;4.40;;
13797;SDS011;6970;51.340;3.240;2023-04-01T00:09:10;18.53;;;4.07;;
13797;SDS011;6970;51.340;3.240;2023-04-01T00:11:36;24.73;;;3.87;;
13797;SDS011;6970;51.340;3.240;2023-04-01T00:14:05;18.50;;;4.60;;
13797;SDS011;6970;51.340;3.240;2023-04-01T00:16:32;19.07;;;4.00;;
13797;SDS011;6970;51.340;3.240;2023-04-01T00:19:00;18.47;;;3.60;;
13797;SDS011;6970;51.340;3.240;2023-04-01T00:21:27;16.50;;;4.23;;
13797;SDS011;6970;51.340;3.240;2023-04-01T00:23:54;19.63;;;4.00;;
13797;SDS011;6970;51.340;3.240;2023-04-01T00:26:22;12.80;;;3.07;;
13797;SDS011;6970;51.340;3.240;2023-04-01T00:28:49;13.50;;;4.00;;
13797;SDS011;6970;51.340;3.240;2023-04-01T00:31:16;13.20;;;3.53;;
13797;SDS011;6970;51.340;3.240;2023-04-01T00:33:44;14.33;;;3.13;;
13797;SDS011;6970;51.340;3.240;2023-04-01T00:36:16;13.27;;;3.17;;
13797;SDS011;6970;51.340;3.240;2023-04-01T00:38:45;6.13;;;2.33;;
13797;SDS011;6970;51.340;3.240;2023-04-01T00:41:13;7.33;;;2.67;;
13797;SDS011;6970;51.340;3.240;2023-04-01T00:43:44;13.53;;;3.27;;
13797;SDS011;6970;51.340;3.240;2023-04-01T00:46:13;17.90;;;3.37;;
13797;SDS011;6970;51.340;3.240;2023-04-01T00:48:45;9.50;;;3.27;;
13797;SDS011;6970;51.340;3.240;2023-04-01T00:51:20;10.43;;;3.20;;
13797;SDS011;6970;51.340;3.240;2023-04-01T00:53:51;14.13;;;2.90;;
13797;SDS011;6970;51.340;3.240;2023-04-01T00:56:30;14.40;;;2.80;;
13797;SDS011;6970;51.340;3.240;2023-04-01T00:59:11;8.93;;;2.93;;
13797;SDS011;6970;51.340;3.240;2023-04-01T01:01:42;13.77;;;3.03;;
13797;SDS011;6970;51.340;3.240;2023-04-01T01:04:25;12.30;;;2.83;;
13797;SDS011;6970;51.340;3.240;2023-04-01T01:38:03;10.70;;;3.03;;
13797;SDS011;6970;51.340;3.240;2023-04-01T01:40:38;9.00;;;3.33;;
13797;SDS011;6970;51.340;3.240;2023-04-01T01:43:10;8.50;;;3.67;;
13797;SDS011;6970;51.340;3.240;2023-04-01T01:45:43;8.83;;;2.77;;
13797;SDS011;6970;51.340;3.240;2023-04-01T01:48:14;10.20;;;2.87;;
13797;SDS011;6970;51.340;3.240;2023-04-01T01:50:44;8.77;;;2.23;;
13797;SDS011;6970;51.340;3.240;2023-04-01T01:53:12;11.90;;;2.43;;
13797;SDS011;6970;51.340;3.240;2023-04-01T01:55:41;7.27;;;2.30;;
13797;SDS011;6970;51.340;3.240;2023-04-01T01:58:23;7.30;;;2.30;;
13797;SDS011;6970;51.340;3.240;2023-04-01T02:01:19;6.33;;;2.10;;
13797;SDS011;6970;51.340;3.240;2023-04-01T02:03:52;8.20;;;2.30;;
13797;SDS011;6970;51.340;3.240;2023-04-01T02:06:22;13.20;;;2.87;;
13797;SDS011;6970;51.340;3.240;2023-04-01T02:11:34;10.03;;;2.60;;
13797;SDS011;6970;51.340;3.240;2023-04-01T02:14:17;8.37;;;2.03;;
13797;SDS011;6970;51.340;3.240;2023-04-01T02:17:02;5.93;;;2.17;;
13797;SDS011;6970;51.340;3.240;2023-04-01T02:19:37;7.93;;;2.63;;
13797;SDS011;6970;51.340;3.240;2023-04-01T02:22:09;6.13;;;2.20;;
13797;SDS011;6970;51.340;3.240;2023-04-01T02:24:39;10.30;;;2.83;;
13797;SDS011;6970;51.340;3.240;2023-04-01T02:27:08;10.60;;;3.23;;
13797;SDS011;6970;51.340;3.240;2023-04-01T02:29:36;7.00;;;2.10;;
13797;SDS011;6970;51.340;3.240;2023-04-01T02:32:04;8.43;;;2.47;;
13797;SDS011;6970;51.340;3.240;2023-04-01T02:34:33;11.57;;;2.30;;
13797;SDS011;6970;51.340;3.240;2023-04-01T02:37:01;6.20;;;1.93;;
13797;SDS011;6970;51.340;3.240;2023-04-01T02:39:28;10.37;;;2.43;;
13797;SDS011;6970;51.340;3.240;2023-04-01T02:41:55;10.27;;;2.37;;
13797;SDS011;6970;51.340;3.240;2023-04-01T02:44:22;10.67;;;2.47;;
13797;SDS011;6970;51.340;3.240;2023-04-01T02:46:49;6.33;;;2.13;;
13797;SDS011;6970;51.340;3.240;2023-04-01T02:49:17;8.20;;;2.17;;
13797;SDS011;6970;51.340;3.240;2023-04-01T02:51:43;5.53;;;2.70;;
13797;SDS011;6970;51.340;3.240;2023-04-01T02:54:10;5.97;;;2.80;;
13797;SDS011;6970;51.340;3.240;2023-04-01T02:56:39;7.30;;;2.93;;
13797;SDS011;6970;51.340;3.240;2023-04-01T02:59:06;9.67;;;2.63;;
13797;SDS011;6970;51.340;3.240;2023-04-01T03:01:34;7.17;;;2.13;;
13797;SDS011;6970;51.340;3.240;2023-04-01T03:04:02;8.80;;;2.47;;
13797;SDS011;6970;51.340;3.240;2023-04-01T03:06:29;10.17;;;3.10;;
13797;SDS011;6970;51.340;3.240;2023-04-01T03:08:56;11.50;;;3.47;;
13797;SDS011;6970;51.340;3.240;2023-04-01T03:11:23;5.87;;;3.03;;
13797;SDS011;6970;51.340;3.240;2023-04-01T03:13:52;9.23;;;2.60;;
13797;SDS011;6970;51.340;3.240;2023-04-01T03:16:19;5.70;;;1.80;;
13797;SDS011;6970;51.340;3.240;2023-04-01T03:18:46;7.47;;;1.80;;
13797;SDS011;6970;51.340;3.240;2023-04-01T03:21:16;6.20;;;1.80;;
13797;SDS011;6970;51.340;3.240;2023-04-01T03:23:48;7.67;;;1.90;;
13797;SDS011;6970;51.340;3.240;2023-04-01T03:26:15;4.70;;;1.90;;
13797;SDS011;6970;51.340;3.240;2023-04-01T03:28:42;3.90;;;1.80;;
13797;SDS011;6970;51.340;3.240;2023-04-01T03:31:10;4.90;;;1.90;;
13797;SDS011;6970;51.340;3.240;2023-04-01T03:33:37;7.83;;;2.10;;
13797;SDS011;6970;51.340;3.240;2023-04-01T03:36:05;8.00;;;1.60;;
13797;SDS011;6970;51.340;3.240;2023-04-01T03:38:33;10.47;;;3.03;;
13797;SDS011;6970;51.340;3.240;2023-04-01T03:41:01;9.90;;;1.70;;
13797;SDS011;6970;51.340;3.240;2023-04-01T03:43:28;11.43;;;2.10;;
13797;SDS011;6970;51.340;3.240;2023-04-01T03:45:55;5.37;;;1.80;;
13797;SDS011;6970;51.340;3.240;2023-04-01T03:48:24;4.97;;;1.70;;
13797;SDS011;6970;51.340;3.240;2023-04-01T03:50:52;10.63;;;1.77;;
13797;SDS011;6970;51.340;3.240;2023-04-01T03:53:19;11.23;;;1.53;;
13797;SDS011;6970;51.340;3.240;2023-04-01T03:55:46;4.03;;;2.27;;
13797;SDS011;6970;51.340;3.240;2023-04-01T03:58:14;6.77;;;1.77;;
13797;SDS011;6970;51.340;3.240;2023-04-01T04:00:42;7.73;;;1.40;;
13797;SDS011;6970;51.340;3.240;2023-04-01T04:03:09;7.43;;;1.47;;
13797;SDS011;6970;51.340;3.240;2023-04-01T04:05:36;9.10;;;2.00;;
13797;SDS011;6970;51.340;3.240;2023-04-01T04:08:03;10.13;;;1.57;;
13797;SDS011;6970;51.340;3.240;2023-04-01T04:10:30;7.03;;;1.43;;
13797;SDS011;6970;51.340;3.240;2023-04-01T04:12:57;6.30;;;1.63;;
13797;SDS011;6970;51.340;3.240;2023-04-01T04:15:24;4.30;;;1.37;;
13797;SDS011;6970;51.340;3.240;2023-04-01T04:17:51;6.50;;;1.73;;
13797;SDS011;6970;51.340;3.240;2023-04-01T04:20:19;6.00;;;1.67;;
13797;SDS011;6970;51.340;3.240;2023-04-01T04:22:46;7.23;;;1.50;;
13797;SDS011;6970;51.340;3.240;2023-04-01T04:25:13;6.07;;;1.80;;
13797;SDS011;6970;51.340;3.240;2023-04-01T04:27:40;3.90;;;1.20;;
13797;SDS011;6970;51.340;3.240;2023-04-01T04:30:07;5.10;;;1.57;;
13797;SDS011;6970;51.340;3.240;2023-04-01T04:32:35;11.77;;;2.53;;
13797;SDS011;6970;51.340;3.240;2023-04-01T04:35:03;8.13;;;2.30;;
13797;SDS011;6970;51.340;3.240;2023-04-01T04:37:32;4.53;;;1.73;;
13797;SDS011;6970;51.340;3.240;2023-04-01T04:39:59;3.47;;;1.43;;
13797;SDS011;6970;51.340;3.240;2023-04-01T04:42:26;9.80;;;1.77;;
13797;SDS011;6970;51.340;3.240;2023-04-01T04:44:53;9.30;;;2.20;;
13797;SDS011;6970;51.340;3.240;2023-04-01T04:47:21;6.50;;;1.60;;
13797;SDS011;6970;51.340;3.240;2023-04-01T04:49:48;4.40;;;1.33;;
13797;SDS011;6970;51.340;3.240;2023-04-01T04:52:15;10.00;;;1.33;;
13797;SDS011;6970;51.340;3.240;2023-04-01T04:54:42;5.70;;;1.50;;
13797;SDS011;6970;51.340;3.240;2023-04-01T04:57:09;3.70;;;1.27;;
13797;SDS011;6970;51.340;3.240;2023-04-01T04:59:36;7.87;;;1.50;;
13797;SDS011;6970;51.340;3.240;2023-04-01T05:02:03;5.83;;;1.57;;
13797;SDS011;6970;51.340;3.240;2023-04-01T05:04:33;7.63;;;2.23;;
13797;SDS011;6970;51.340;3.240;2023-04-01T05:07:02;5.37;;;1.50;;
13797;SDS011;6970;51.340;3.240;2023-04-01T05:09:29;7.13;;;1.47;;
13797;SDS011;6970;51.340;3.240;2023-04-01T05:11:56;8.60;;;2.03;;
13797;SDS011;6970;51.340;3.240;2023-04-01T05:14:23;5.57;;;1.50;;
13797;SDS011;6970;51.340;3.240;2023-04-01T05:16:50;4.17;;;1.30;;
13797;SDS011;6970;51.340;3.240;2023-04-01T05:19:17;10.80;;;1.50;;
13797;SDS011;6970;51.340;3.240;2023-04-01T05:21:44;8.50;;;1.13;;
13797;SDS011;6970;51.340;3.240;2023-04-01T05:24:11;3.80;;;1.47;;
13797;SDS011;6970;51.340;3.240;2023-04-01T05:26:38;8.03;;;1.37;;
13797;SDS011;6970;51.340;3.240;2023-04-01T05:29:05;4.23;;;1.23;;
13797;SDS011;6970;51.340;3.240;2023-04-01T05:31:32;6.43;;;1.63;;
13797;SDS011;6970;51.340;3.240;2023-04-01T05:33:59;6.27;;;2.00;;
13797;SDS011;6970;51.340;3.240;2023-04-01T05:36:26;8.23;;;1.30;;
13797;SDS011;6970;51.340;3.240;2023-04-01T05:38:56;6.47;;;1.37;;
13797;SDS011;6970;51.340;3.240;2023-04-01T05:41:23;6.73;;;2.00;;
13797;SDS011;6970;51.340;3.240;2023-04-01T05:43:50;3.73;;;1.30;;
13797;SDS011;6970;51.340;3.240;2023-04-01T05:46:17;4.10;;;1.00;;
13797;SDS011;6970;51.340;3.240;2023-04-01T05:48:44;3.60;;;1.00;;
13797;SDS011;6970;51.340;3.240;2023-04-01T05:51:14;8.00;;;1.40;;
13797;SDS011;6970;51.340;3.240;2023-04-01T05:53:42;7.47;;;1.10;;
13797;SDS011;6970;51.340;3.240;2023-04-01T05:56:10;2.73;;;0.77;;
13797;SDS011;6970;51.340;3.240;2023-04-01T05:58:38;4.53;;;1.13;;
13797;SDS011;6970;51.340;3.240;2023-04-01T06:01:09;8.47;;;1.37;;
13797;SDS011;6970;51.340;3.240;2023-04-01T06:03:41;5.23;;;0.80;;
13797;SDS011;6970;51.340;3.240;2023-04-01T06:06:20;4.07;;;1.07;;
13797;SDS011;6970;51.340;3.240;2023-04-01T06:08:53;6.10;;;1.40;;
13797;SDS011;6970;51.340;3.240;2023-04-01T06:14:16;5.77;;;1.17;;
13797;SDS011;6970;51.340;3.240;2023-04-01T06:25:53;7.77;;;1.60;;
13797;SDS011;6970;51.340;3.240;2023-04-01T06:28:53;6.13;;;1.27;;
13797;SDS011;6970;51.340;3.240;2023-04-01T06:32:04;10.80;;;1.43;;
13797;SDS011;6970;51.340;3.240;2023-04-01T06:53:51;6.47;;;1.60;;
13797;SDS011;6970;51.340;3.240;2023-04-01T06:56:21;9.07;;;1.90;;
13797;SDS011;6970;51.340;3.240;2023-04-01T06:58:53;6.00;;;1.30;;
13797;SDS011;6970;51.340;3.240;2023-04-01T07:01:52;4.93;;;1.80;;
13797;SDS011;6970;51.340;3.240;2023-04-01T07:04:55;4.23;;;1.33;;
13797;SDS011;6970;51.340;3.240;2023-04-01T07:07:21;7.53;;;1.97;;
13797;SDS011;6970;51.340;3.240;2023-04-01T07:09:56;6.10;;;1.50;;
13797;SDS011;6970;51.340;3.240;2023-04-01T07:14:58;9.17;;;2.17;;
13797;SDS011;6970;51.340;3.240;2023-04-01T07:17:48;7.57;;;1.37;;
13797;SDS011;6970;51.340;3.240;2023-04-01T07:20:23;5.60;;;1.70;;
13797;SDS011;6970;51.340;3.240;2023-04-01T07:22:54;11.80;;;2.43;;
13797;SDS011;6970;51.340;3.240;2023-04-01T07:25:25;6.23;;;1.97;;
13797;SDS011;6970;51.340;3.240;2023-04-01T07:28:00;9.03;;;2.30;;
13797;SDS011;6970;51.340;3.240;2023-04-01T07:30:40;9.13;;;2.10;;
13797;SDS011;6970;51.340;3.240;2023-04-01T07:33:19;8.40;;;2.50;;
13797;SDS011;6970;51.340;3.240;2023-04-01T07:35:59;5.10;;;1.80;;
13797;SDS011;6970;51.340;3.240;2023-04-01T07:44:07;6.50;;;2.00;;
13797;SDS011;6970;51.340;3.240;2023-04-01T07:58:18;6.47;;;1.33;;
13797;SDS011;6970;51.340;3.240;2023-04-01T08:01:00;6.13;;;1.53;;
13797;SDS011;6970;51.340;3.240;2023-04-01T08:03:49;8.67;;;2.17;;
13797;SDS011;6970;51.340;3.240;2023-04-01T08:19:45;5.57;;;1.20;;
13797;SDS011;6970;51.340;3.240;2023-04-01T08:22:29;6.77;;;1.40;;
13797;SDS011;6970;51.340;3.240;2023-04-01T08:25:05;4.80;;;1.23;;
13797;SDS011;6970;51.340;3.240;2023-04-01T08:27:37;5.37;;;1.10;;
13797;SDS011;6970;51.340;3.240;2023-04-01T08:32:55;5.73;;;1.60;;
13797;SDS011;6970;51.340;3.240;2023-04-01T08:41:09;6.10;;;1.77;;
13797;SDS011;6970;51.340;3.240;2023-04-01T09:00:53;12.27;;;1.80;;
13797;SDS011;6970;51.340;3.240;2023-04-01T09:14:26;8.37;;;1.40;;
13797;SDS011;6970;51.340;3.240;2023-04-01T09:36:46;6.97;;;1.37;;
13797;SDS011;6970;51.340;3.240;2023-04-01T09:39:39;4.73;;;1.67;;
13797;SDS011;6970;51.340;3.240;2023-04-01T09:45:00;4.87;;;1.40;;
13797;SDS011;6970;51.340;3.240;2023-04-01T09:50:14;4.00;;;1.47;;
13797;SDS011;6970;51.340;3.240;2023-04-01T09:58:32;4.20;;;1.30;;
13797;SDS011;6970;51.340;3.240;2023-04-01T10:06:51;7.33;;;1.63;;
13797;SDS011;6970;51.340;3.240;2023-04-01T10:21:03;8.33;;;2.27;;
13797;SDS011;6970;51.340;3.240;2023-04-01T10:27:13;8.93;;;1.70;;
13797;SDS011;6970;51.340;3.240;2023-04-01T10:40:25;12.63;;;2.33;;
13797;SDS011;6970;51.340;3.240;2023-04-01T10:49:10;5.27;;;1.60;;
13797;SDS011;6970;51.340;3.240;2023-04-01T10:59:46;6.77;;;1.77;;
13797;SDS011;6970;51.340;3.240;2023-04-01T11:41:49;5.93;;;2.83;;
13797;SDS011;6970;51.340;3.240;2023-04-01T11:46:36;9.30;;;2.17;;
13797;SDS011;6970;51.340;3.240;2023-04-01T11:49:31;7.27;;;1.60;;
13797;SDS011;6970;51.340;3.240;2023-04-01T11:52:21;4.10;;;1.27;;
13797;SDS011;6970;51.340;3.240;2023-04-01T12:06:23;3.87;;;0.90;;
13797;SDS011;6970;51.340;3.240;2023-04-01T12:20:23;7.07;;;1.07;;
13797;SDS011;6970;51.340;3.240;2023-04-01T12:23:03;7.70;;;0.80;;
13797;SDS011;6970;51.340;3.240;2023-04-01T12:25:54;1.73;;;0.37;;
13797;SDS011;6970;51.340;3.240;2023-04-01T12:28:29;8.23;;;0.80;;
13797;SDS011;6970;51.340;3.240;2023-04-01T12:42:36;4.23;;;1.10;;
13797;SDS011;6970;51.340;3.240;2023-04-01T13:01:41;6.83;;;1.10;;
13797;SDS011;6970;51.340;3.240;2023-04-01T13:07:07;9.07;;;1.50;;
13797;SDS011;6970;51.340;3.240;2023-04-01T13:12:42;3.97;;;1.37;;
13797;SDS011;6970;51.340;3.240;2023-04-01T13:29:20;2.33;;;0.77;;
13797;SDS011;6970;51.340;3.240;2023-04-01T13:43:36;5.60;;;1.50;;
13797;SDS011;6970;51.340;3.240;2023-04-01T13:46:26;4.23;;;0.97;;
13797;SDS011;6970;51.340;3.240;2023-04-01T13:51:48;3.37;;;0.80;;
13797;SDS011;6970;51.340;3.240;2023-04-01T13:57:14;4.90;;;0.80;;
13797;SDS011;6970;51.340;3.240;2023-04-01T14:03:12;4.50;;;1.03;;
13797;SDS011;6970;51.340;3.240;2023-04-01T14:08:40;3.27;;;0.93;;
13797;SDS011;6970;51.340;3.240;2023-04-01T14:32:49;6.57;;;1.20;;
13797;SDS011;6970;51.340;3.240;2023-04-01T14:35:34;3.30;;;0.63;;
13797;SDS011;6970;51.340;3.240;2023-04-01T14:41:20;3.03;;;0.80;;
13797;SDS011;6970;51.340;3.240;2023-04-01T14:49:35;6.13;;;1.10;;
13797;SDS011;6970;51.340;3.240;2023-04-01T14:54:42;1.97;;;0.73;;
13797;SDS011;6970;51.340;3.240;2023-04-01T14:57:13;3.30;;;0.90;;
13797;SDS011;6970;51.340;3.240;2023-04-01T15:06:05;2.53;;;0.70;;
13797;SDS011;6970;51.340;3.240;2023-04-01T15:09:15;3.40;;;1.10;;
13797;SDS011;6970;51.340;3.240;2023-04-01T15:31:17;7.67;;;1.20;;
13797;SDS011;6970;51.340;3.240;2023-04-01T15:36:26;3.70;;;0.97;;
13797;SDS011;6970;51.340;3.240;2023-04-01T15:39:14;5.30;;;1.30;;
13797;SDS011;6970;51.340;3.240;2023-04-01T15:41:48;3.50;;;1.17;;
13797;SDS011;6970;51.340;3.240;2023-04-01T15:52:48;3.40;;;0.90;;
13797;SDS011;6970;51.340;3.240;2023-04-01T16:24:35;6.13;;;1.37;;
13797;SDS011;6970;51.340;3.240;2023-04-01T16:29:53;4.70;;;2.20;;
13797;SDS011;6970;51.340;3.240;2023-04-01T16:35:15;8.77;;;2.50;;
13797;SDS011;6970;51.340;3.240;2023-04-01T16:38:05;6.23;;;3.00;;
13797;SDS011;6970;51.340;3.240;2023-04-01T16:41:17;7.80;;;2.47;;
13797;SDS011;6970;51.340;3.240;2023-04-01T16:43:50;7.13;;;2.93;;
13797;SDS011;6970;51.340;3.240;2023-04-01T16:51:48;9.73;;;2.50;;
13797;SDS011;6970;51.340;3.240;2023-04-01T16:54:41;11.83;;;3.47;;
13797;SDS011;6970;51.340;3.240;2023-04-01T16:58:07;5.57;;;2.00;;
13797;SDS011;6970;51.340;3.240;2023-04-01T17:00:26;11.33;;;1.73;;
13797;SDS011;6970;51.340;3.240;2023-04-01T17:05:39;12.27;;;2.93;;
13797;SDS011;6970;51.340;3.240;2023-04-01T17:08:29;6.73;;;2.20;;
13797;SDS011;6970;51.340;3.240;2023-04-01T17:11:02;10.33;;;2.90;;
13797;SDS011;6970;51.340;3.240;2023-04-01T17:17:01;11.27;;;3.27;;
13797;SDS011;6970;51.340;3.240;2023-04-01T17:20:18;12.83;;;2.50;;
13797;SDS011;6970;51.340;3.240;2023-04-01T17:23:13;8.10;;;3.00;;
13797;SDS011;6970;51.340;3.240;2023-04-01T17:34:23;14.80;;;2.97;;
13797;SDS011;6970;51.340;3.240;2023-04-01T17:40:28;12.97;;;2.87;;
13797;SDS011;6970;51.340;3.240;2023-04-01T17:45:56;17.67;;;4.87;;
13797;SDS011;6970;51.340;3.240;2023-04-01T17:53:52;12.23;;;3.73;;
13797;SDS011;6970;51.340;3.240;2023-04-01T17:59:38;11.83;;;3.20;;
13797;SDS011;6970;51.340;3.240;2023-04-01T18:05:47;19.03;;;3.37;;
13797;SDS011;6970;51.340;3.240;2023-04-01T18:08:09;20.20;;;3.83;;
13797;SDS011;6970;51.340;3.240;2023-04-01T18:11:05;19.37;;;4.70;;
13797;SDS011;6970;51.340;3.240;2023-04-01T18:24:40;13.20;;;4.33;;
13797;SDS011;6970;51.340;3.240;2023-04-01T18:28:06;16.87;;;3.87;;
13797;SDS011;6970;51.340;3.240;2023-04-01T18:30:34;12.30;;;4.00;;
13797;SDS011;6970;51.340;3.240;2023-04-01T18:38:40;15.77;;;4.87;;
13797;SDS011;6970;51.340;3.240;2023-04-01T18:41:29;21.20;;;4.70;;
13797;SDS011;6970;51.340;3.240;2023-04-01T18:52:56;16.57;;;3.53;;
13797;SDS011;6970;51.340;3.240;2023-04-01T18:55:54;16.23;;;4.53;;
13797;SDS011;6970;51.340;3.240;2023-04-01T18:58:35;21.60;;;4.33;;
13797;SDS011;6970;51.340;3.240;2023-04-01T19:01:22;14.23;;;4.40;;
13797;SDS011;6970;51.340;3.240;2023-04-01T19:04:18;19.80;;;4.70;;
13797;SDS011;6970;51.340;3.240;2023-04-01T19:12:59;28.93;;;5.43;;
13797;SDS011;6970;51.340;3.240;2023-04-01T19:15:46;26.13;;;5.43;;
13797;SDS011;6970;51.340;3.240;2023-04-01T19:37:44;25.77;;;6.20;;
13797;SDS011;6970;51.340;3.240;2023-04-01T19:40:41;22.20;;;6.63;;
13797;SDS011;6970;51.340;3.240;2023-04-01T19:49:09;20.53;;;5.57;;
13797;SDS011;6970;51.340;3.240;2023-04-01T19:59:51;26.53;;;7.50;;
13797;SDS011;6970;51.340;3.240;2023-04-01T20:07:57;31.97;;;9.33;;
13797;SDS011;6970;51.340;3.240;2023-04-01T20:13:39;20.67;;;7.70;;
13797;SDS011;6970;51.340;3.240;2023-04-01T20:16:18;17.43;;;7.10;;
13797;SDS011;6970;51.340;3.240;2023-04-01T20:18:51;27.27;;;7.90;;
13797;SDS011;6970;51.340;3.240;2023-04-01T20:24:23;19.90;;;7.23;;
13797;SDS011;6970;51.340;3.240;2023-04-01T20:27:05;27.83;;;7.70;;
13797;SDS011;6970;51.340;3.240;2023-04-01T20:29:46;28.90;;;7.07;;
13797;SDS011;6970;51.340;3.240;2023-04-01T20:33:05;18.63;;;5.93;;
13797;SDS011;6970;51.340;3.240;2023-04-01T20:47:10;30.53;;;9.00;;
13797;SDS011;6970;51.340;3.240;2023-04-01T20:50:02;24.23;;;6.83;;
13797;SDS011;6970;51.340;3.240;2023-04-01T20:52:57;29.00;;;7.47;;
13797;SDS011;6970;51.340;3.240;2023-04-01T21:01:35;35.07;;;8.13;;
13797;SDS011;6970;51.340;3.240;2023-04-01T21:04:22;26.77;;;8.40;;
13797;SDS011;6970;51.340;3.240;2023-04-01T21:12:24;22.10;;;7.90;;
13797;SDS011;6970;51.340;3.240;2023-04-01T21:25:21;35.03;;;7.70;;
13797;SDS011;6970;51.340;3.240;2023-04-01T21:30:57;30.17;;;9.60;;
13797;SDS011;6970;51.340;3.240;2023-04-01T22:00:37;17.77;;;6.17;;
13797;SDS011;6970;51.340;3.240;2023-04-01T22:09:02;21.93;;;7.40;;
13797;SDS011;6970;51.340;3.240;2023-04-01T22:17:33;32.63;;;8.10;;
13797;SDS011;6970;51.340;3.240;2023-04-01T22:28:52;36.07;;;8.47;;
13797;SDS011;6970;51.340;3.240;2023-04-01T22:34:27;26.23;;;6.90;;
13797;SDS011;6970;51.340;3.240;2023-04-01T22:42:59;19.40;;;6.77;;
13797;SDS011;6970;51.340;3.240;2023-04-01T22:51:18;26.27;;;7.13;;
13797;SDS011;6970;51.340;3.240;2023-04-01T23:02:16;23.37;;;8.57;;
13797;SDS011;6970;51.340;3.240;2023-04-01T23:04:52;31.07;;;7.67;;
13797;SDS011;6970;51.340;3.240;2023-04-01T23:10:39;23.80;;;7.90;;
13797;SDS011;6970;51.340;3.240;2023-04-01T23:13:16;22.23;;;7.53;;
13797;SDS011;6970;51.340;3.240;2023-04-01T23:15:51;27.87;;;8.30;;
13797;SDS011;6970;51.340;3.240;2023-04-01T23:21:06;19.37;;;7.50;;
13797;SDS011;6970;51.340;3.240;2023-04-01T23:26:25;31.37;;;7.83;;
13797;SDS011;6970;51.340;3.240;2023-04-01T23:28:57;19.83;;;6.37;;
13797;SDS011;6970;51.340;3.240;2023-04-01T23:31:27;19.67;;;6.73;;
13797;SDS011;6970;51.340;3.240;2023-04-01T23:33:57;25.50;;;8.10;;
13797;SDS011;6970;51.340;3.240;2023-04-01T23:36:27;22.70;;;7.87;;
13797;SDS011;6970;51.340;3.240;2023-04-01T23:38:55;18.70;;;7.23;;
13797;SDS011;6970;51.340;3.240;2023-04-01T23:41:26;14.77;;;5.97;;
13797;SDS011;6970;51.340;3.240;2023-04-01T23:43:58;17.60;;;6.10;;
13797;SDS011;6970;51.340;3.240;2023-04-01T23:46:29;16.60;;;6.17;;
13797;SDS011;6970;51.340;3.240;2023-04-01T23:48:58;14.37;;;7.27;;
13797;SDS011;6970;51.340;3.240;2023-04-01T23:51:27;20.87;;;7.23;;
13797;SDS011;6970;51.340;3.240;2023-04-01T23:54:09;19.13;;;6.93;;
13797;SDS011;6970;51.340;3.240;2023-04-01T23:56:45;12.83;;;6.13;;
13797;SDS011;6970;51.340;3.240;2023-04-01T23:59:30;17.60;;;7.03;;
